createdAt,value
2023-04-18T00:02:23.036Z,4.03
2023-04-18T00:04:50.518Z,4.03
2023-04-18T00:07:17.874Z,4.00
2023-04-18T00:09:44.815Z,4.13
2023-04-18T00:12:18.886Z,3.87
2023-04-18T00:14:45.669Z,4.00
2023-04-18T00:17:13.310Z,4.13
2023-04-18T00:19:43.269Z,3.92
2023-04-18T00:22:11.313Z,4.10
2023-04-18T00:24:38.181Z,4.18
2023-04-18T00:27:05.811Z,4.20
2023-04-18T00:29:38.421Z,3.70
2023-04-18T00:32:05.388Z,3.80
2023-04-18T00:34:32.092Z,3.85
2023-04-18T00:37:01.101Z,3.78
2023-04-18T00:39:30.749Z,4.03
2023-04-18T00:41:59.224Z,4.10
2023-04-18T00:44:28.075Z,3.95
2023-04-18T00:46:57.795Z,4.20
2023-04-18T00:49:30.035Z,3.90
2023-04-18T00:51:57.287Z,4.03
2023-04-18T00:54:30.778Z,4.07
2023-04-18T00:56:57.625Z,4.30
2023-04-18T00:59:24.488Z,4.03
2023-04-18T01:01:51.174Z,4.40
2023-04-18T01:04:18.985Z,4.13
2023-04-18T01:06:48.101Z,4.20
2023-04-18T01:09:17.137Z,4.18
2023-04-18T01:11:47.329Z,4.30
2023-04-18T01:14:23.477Z,4.07
2023-04-18T01:16:51.813Z,3.90
2023-04-18T01:19:26.122Z,4.07
2023-04-18T01:21:56.219Z,4.07
2023-04-18T01:24:25.776Z,4.20
2023-04-18T01:26:52.760Z,4.20
2023-04-18T01:29:19.578Z,4.10
2023-04-18T01:31:46.732Z,3.90
2023-04-18T01:34:21.256Z,4.05
2023-04-18T01:36:48.870Z,3.80
2023-04-18T01:39:18.733Z,4.07
2023-04-18T01:41:48.426Z,3.90
2023-04-18T01:44:16.878Z,4.13
2023-04-18T01:46:46.137Z,4.20
2023-04-18T01:49:13.344Z,4.10
2023-04-18T01:51:52.261Z,3.83
2023-04-18T01:54:21.369Z,4.22
2023-04-18T01:56:50.673Z,4.20
2023-04-18T01:59:19.677Z,3.95
2023-04-18T02:01:49.451Z,3.92
2023-04-18T02:04:20.321Z,3.95
2023-04-18T02:06:54.893Z,3.90
2023-04-18T02:09:21.812Z,4.13
2023-04-18T02:11:50.678Z,3.80
2023-04-18T02:14:17.562Z,3.90
2023-04-18T02:16:44.989Z,4.03
2023-04-18T02:19:13.219Z,4.10
2023-04-18T02:21:45.614Z,3.78
2023-04-18T02:26:47.874Z,3.53
2023-04-18T02:29:23.041Z,3.58
2023-04-18T02:31:49.900Z,3.95
2023-04-18T02:34:18.162Z,3.90
2023-04-18T02:36:49.481Z,3.90
2023-04-18T02:39:21.512Z,3.70
2023-04-18T02:41:54.916Z,3.65
2023-04-18T02:44:30.550Z,3.90
2023-04-18T02:46:57.519Z,4.00
2023-04-18T02:49:27.696Z,4.00
2023-04-18T02:51:55.874Z,3.75
2023-04-18T02:54:23.214Z,3.85
2023-04-18T02:56:56.928Z,4.00
2023-04-18T02:59:28.365Z,3.88
2023-04-18T03:02:17.302Z,4.03
2023-04-18T03:04:50.434Z,4.15
2023-04-18T03:07:17.444Z,3.97
2023-04-18T03:09:44.486Z,3.95
2023-04-18T03:12:18.663Z,3.83
2023-04-18T03:14:48.809Z,4.60
2023-04-18T03:17:18.668Z,3.90
2023-04-18T03:19:48.601Z,4.05
2023-04-18T03:22:17.861Z,3.45
2023-04-18T03:24:54.022Z,3.83
2023-04-18T03:27:31.705Z,4.10
2023-04-18T03:30:05.621Z,4.07
2023-04-18T03:32:33.993Z,3.97
2023-04-18T03:35:07.494Z,4.10
2023-04-18T03:37:34.616Z,4.35
2023-04-18T03:40:07.341Z,4.45
2023-04-18T03:42:34.117Z,4.03
2023-04-18T03:45:03.525Z,3.85
2023-04-18T03:47:35.477Z,4.07
2023-04-18T03:50:05.095Z,3.80
2023-04-18T03:52:37.793Z,3.80
2023-04-18T03:55:06.904Z,3.88
2023-04-18T03:57:34.433Z,3.80
2023-04-18T04:00:13.280Z,4.28
2023-04-18T04:02:49.916Z,4.00
2023-04-18T04:05:20.513Z,3.83
2023-04-18T04:07:48.084Z,4.30
2023-04-18T04:10:14.836Z,3.85
2023-04-18T04:12:44.435Z,4.18
2023-04-18T04:15:14.045Z,3.72
2023-04-18T04:17:51.152Z,3.72
2023-04-18T04:20:23.985Z,3.97
2023-04-18T04:23:01.440Z,4.28
2023-04-18T04:25:32.330Z,3.90
2023-04-18T04:28:09.713Z,3.60
2023-04-18T04:30:47.270Z,3.58
2023-04-18T04:33:19.535Z,3.72
2023-04-18T04:35:51.528Z,3.40
2023-04-18T04:38:23.087Z,3.35
2023-04-18T04:40:52.937Z,3.55
2023-04-18T04:43:26.651Z,3.72
2023-04-18T04:45:55.519Z,3.70
2023-04-18T04:48:31.590Z,3.35
2023-04-18T04:51:04.354Z,3.45
2023-04-18T04:53:31.146Z,3.70
2023-04-18T04:56:02.834Z,3.45
2023-04-18T04:58:29.587Z,3.20
2023-04-18T05:00:59.198Z,3.60
2023-04-18T05:03:26.589Z,3.30
2023-04-18T05:05:57.822Z,3.40
2023-04-18T05:08:33.269Z,3.28
2023-04-18T05:11:01.730Z,3.40
2023-04-18T05:13:28.390Z,3.80
2023-04-18T05:16:02.875Z,3.30
2023-04-18T05:18:29.735Z,3.28
2023-04-18T05:20:58.645Z,3.30
2023-04-18T05:23:27.122Z,3.17
2023-04-18T05:26:03.009Z,3.58
2023-04-18T05:28:30.288Z,3.00
2023-04-18T05:31:05.028Z,3.60
2023-04-18T05:33:34.445Z,3.22
2023-04-18T05:36:07.634Z,4.25
2023-04-18T05:38:36.809Z,3.40
2023-04-18T05:41:03.679Z,4.15
2023-04-18T05:43:30.354Z,3.40
2023-04-18T05:45:57.998Z,3.60
2023-04-18T05:48:26.679Z,3.70
2023-04-18T05:50:56.327Z,3.67
2023-04-18T05:53:25.590Z,3.58
2023-04-18T05:56:01.988Z,3.70
2023-04-18T05:58:32.312Z,3.72
2023-04-18T06:03:30.678Z,3.70
2023-04-18T06:06:00.567Z,3.60
2023-04-18T06:08:30.245Z,3.90
2023-04-18T06:11:01.194Z,4.03
2023-04-18T06:13:33.500Z,3.92
2023-04-18T06:16:03.221Z,3.78
2023-04-18T06:18:30.334Z,3.80
2023-04-18T06:20:56.927Z,3.67
2023-04-18T06:23:23.608Z,4.07
2023-04-18T06:25:50.547Z,3.90
2023-04-18T06:28:17.542Z,4.20
2023-04-18T06:30:44.688Z,4.20
2023-04-18T06:33:12.655Z,3.80
2023-04-18T06:35:40.863Z,4.10
2023-04-18T06:38:11.860Z,4.60
2023-04-18T06:40:45.586Z,4.68
2023-04-18T06:43:12.232Z,4.35
2023-04-18T06:45:39.650Z,4.25
2023-04-18T06:48:08.207Z,4.20
2023-04-18T06:50:35.034Z,4.47
2023-04-18T06:53:02.257Z,4.47
2023-04-18T06:55:31.989Z,4.68
2023-04-18T06:58:05.521Z,4.68
2023-04-18T07:00:35.566Z,4.28
2023-04-18T07:03:06.156Z,4.70
2023-04-18T07:05:33.842Z,4.82
2023-04-18T07:08:00.898Z,4.65
2023-04-18T07:10:27.676Z,4.70
2023-04-18T07:12:54.438Z,4.75
2023-04-18T07:15:21.277Z,5.03
2023-04-18T07:17:53.521Z,4.75
2023-04-18T07:20:25.565Z,4.50
2023-04-18T07:22:52.305Z,5.10
2023-04-18T07:25:19.347Z,4.60
2023-04-18T07:27:48.602Z,4.60
2023-04-18T07:30:15.556Z,4.77
2023-04-18T07:32:42.407Z,4.68
2023-04-18T07:35:09.668Z,4.57
2023-04-18T07:37:36.584Z,4.65
2023-04-18T07:40:07.415Z,5.05
2023-04-18T07:42:34.325Z,4.35
2023-04-18T07:45:01.299Z,4.60
2023-04-18T07:47:30.157Z,4.68
2023-04-18T07:49:59.636Z,4.55
2023-04-18T07:52:28.910Z,4.93
2023-04-18T07:54:55.602Z,4.50
2023-04-18T07:57:22.315Z,4.63
2023-04-18T07:59:54.890Z,5.03
2023-04-18T08:04:50.113Z,4.30
2023-04-18T08:07:18.828Z,4.95
2023-04-18T08:09:48.258Z,5.00
2023-04-18T08:12:14.998Z,4.70
2023-04-18T08:14:44.842Z,5.07
2023-04-18T08:17:14.049Z,5.35
2023-04-18T08:19:40.773Z,5.38
2023-04-18T08:22:10.897Z,5.40
2023-04-18T08:24:38.518Z,5.32
2023-04-18T08:27:05.722Z,5.35
2023-04-18T08:29:33.260Z,5.60
2023-04-18T08:32:08.600Z,5.43
2023-04-18T08:34:38.280Z,4.70
2023-04-18T08:37:08.158Z,5.60
2023-04-18T08:39:37.772Z,4.70
2023-04-18T08:42:06.732Z,5.28
2023-04-18T08:44:36.128Z,4.93
2023-04-18T08:47:08.812Z,5.20
2023-04-18T08:49:42.900Z,5.13
2023-04-18T08:52:18.978Z,5.50
2023-04-18T08:54:49.637Z,5.35
2023-04-18T08:57:17.704Z,5.35
2023-04-18T08:59:49.648Z,5.88
2023-04-18T09:02:19.239Z,5.82
2023-04-18T09:04:55.316Z,5.95
2023-04-18T09:07:32.048Z,6.05
2023-04-18T09:10:03.549Z,5.20
2023-04-18T09:12:30.498Z,5.00
2023-04-18T09:15:18.600Z,4.90
2023-04-18T09:17:54.603Z,5.25
2023-04-18T09:20:42.227Z,5.95
2023-04-18T09:23:14.142Z,5.75
2023-04-18T09:25:48.456Z,5.40
2023-04-18T09:28:28.201Z,5.43
2023-04-18T09:30:56.912Z,5.85
2023-04-18T09:33:29.193Z,5.80
2023-04-18T09:36:18.868Z,5.80
2023-04-18T09:38:46.410Z,5.10
2023-04-18T09:41:19.146Z,5.28
2023-04-18T09:43:51.014Z,5.50
2023-04-18T09:46:22.834Z,4.97
2023-04-18T09:48:54.571Z,5.60
2023-04-18T09:51:23.789Z,5.38
2023-04-18T09:53:51.313Z,5.72
2023-04-18T09:56:33.920Z,7.05
2023-04-18T09:59:11.640Z,7.00
2023-04-18T10:01:40.419Z,6.78
2023-04-18T10:04:24.306Z,6.82
2023-04-18T10:06:58.877Z,6.65
2023-04-18T10:09:41.690Z,6.75
2023-04-18T10:12:26.738Z,6.75
2023-04-18T10:14:54.910Z,6.30
2023-04-18T10:17:21.730Z,6.03
2023-04-18T10:20:07.321Z,5.50
2023-04-18T10:22:37.806Z,5.60
2023-04-18T10:25:12.123Z,7.22
2023-04-18T10:27:48.856Z,7.45
2023-04-18T10:30:18.907Z,7.85
2023-04-18T10:35:24.420Z,7.88
2023-04-18T10:37:59.750Z,7.88
2023-04-18T10:40:34.234Z,7.63
2023-04-18T10:43:01.574Z,8.07
2023-04-18T10:45:36.298Z,7.60
2023-04-18T10:48:31.206Z,7.47
2023-04-18T10:51:18.791Z,6.82
2023-04-18T10:53:54.051Z,7.45
2023-04-18T10:56:22.191Z,6.93
2023-04-18T10:58:53.161Z,6.70
2023-04-18T11:01:35.018Z,6.38
2023-04-18T11:04:15.902Z,6.75
2023-04-18T11:07:01.319Z,6.05
2023-04-18T11:09:28.235Z,5.65
2023-04-18T11:12:11.379Z,5.78
2023-04-18T11:17:30.975Z,5.80
2023-04-18T11:20:14.970Z,6.07
2023-04-18T11:22:54.701Z,5.55
2023-04-18T11:25:33.765Z,5.75
2023-04-18T11:28:03.931Z,5.63
2023-04-18T11:30:38.547Z,5.70
2023-04-18T11:33:11.940Z,5.72
2023-04-18T11:35:43.686Z,5.90
2023-04-18T11:38:18.750Z,5.25
2023-04-18T11:43:24.980Z,5.30
2023-04-18T11:45:56.260Z,5.22
2023-04-18T11:48:36.708Z,5.30
2023-04-18T11:51:11.809Z,5.57
2023-04-18T11:53:39.591Z,5.25
2023-04-18T11:56:24.557Z,5.10
2023-04-18T11:58:53.545Z,5.07
2023-04-18T12:01:25.244Z,4.72
2023-04-18T12:04:08.445Z,4.70
2023-04-18T12:06:51.776Z,4.90
2023-04-18T12:09:21.625Z,4.68
2023-04-18T12:14:36.084Z,4.30
2023-04-18T12:17:03.589Z,4.40
2023-04-18T12:19:30.420Z,4.20
2023-04-18T12:22:05.987Z,4.30
2023-04-18T12:24:34.174Z,4.20
2023-04-18T12:27:01.129Z,3.90
2023-04-18T12:29:29.948Z,3.67
2023-04-18T12:31:59.650Z,4.00
2023-04-18T12:34:29.393Z,4.00
2023-04-18T12:37:01.461Z,3.80
2023-04-18T12:39:28.181Z,3.80
2023-04-18T12:41:55.295Z,3.60
2023-04-18T12:44:22.662Z,3.53
2023-04-18T12:46:49.634Z,4.28
2023-04-18T12:49:16.592Z,3.80
2023-04-18T12:51:43.667Z,3.90
2023-04-18T12:54:16.088Z,3.72
2023-04-18T12:56:46.415Z,3.90
2023-04-18T13:01:42.762Z,3.85
2023-04-18T13:04:13.190Z,3.80
2023-04-18T13:06:46.269Z,3.50
2023-04-18T13:09:13.611Z,3.63
2023-04-18T13:11:40.544Z,3.60
2023-04-18T13:14:13.132Z,3.33
2023-04-18T13:16:42.532Z,3.30
2023-04-18T13:19:13.215Z,3.42
2023-04-18T13:21:40.259Z,3.30
2023-04-18T13:24:09.541Z,3.05
2023-04-18T13:26:38.532Z,2.97
2023-04-18T13:29:05.456Z,3.17
2023-04-18T13:31:32.155Z,2.90
2023-04-18T13:33:59.153Z,3.15
2023-04-18T13:36:27.010Z,2.80
2023-04-18T13:38:56.361Z,3.00
2023-04-18T13:41:23.484Z,2.70
2023-04-18T13:43:52.628Z,2.90
2023-04-18T13:46:19.489Z,3.00
2023-04-18T13:48:48.054Z,3.10
2023-04-18T13:51:17.320Z,2.70
2023-04-18T13:53:44.011Z,2.80
2023-04-18T13:56:14.690Z,2.92
2023-04-18T13:58:56.439Z,2.90
2023-04-18T14:01:23.251Z,2.55
2023-04-18T14:03:55.691Z,2.95
2023-04-18T14:06:35.224Z,2.80
2023-04-18T14:09:22.315Z,2.90
2023-04-18T14:13:01.018Z,2.90
2023-04-18T14:15:42.178Z,2.85
2023-04-18T14:18:09.093Z,2.80
2023-04-18T14:20:36.371Z,2.70
2023-04-18T14:23:03.479Z,2.75
2023-04-18T14:25:31.961Z,2.40
2023-04-18T14:28:12.122Z,2.67
2023-04-18T14:30:40.242Z,2.50
2023-04-18T14:33:10.251Z,2.60
2023-04-18T14:35:39.565Z,2.88
2023-04-18T14:38:06.310Z,2.60
2023-04-18T14:40:36.107Z,2.60
2023-04-18T14:43:03.069Z,2.40
2023-04-18T14:45:35.037Z,3.10
2023-04-18T14:48:08.799Z,2.50
2023-04-18T14:50:38.572Z,2.40
2023-04-18T14:53:06.157Z,2.55
2023-04-18T14:55:41.426Z,2.58
2023-04-18T14:58:15.620Z,2.38
2023-04-18T15:00:42.736Z,2.45
2023-04-18T15:03:12.152Z,2.55
2023-04-18T15:05:42.837Z,2.70
2023-04-18T15:08:11.087Z,3.20
2023-04-18T15:10:43.094Z,3.10
2023-04-18T15:13:17.382Z,2.85
2023-04-18T15:15:51.774Z,2.90
2023-04-18T15:18:18.785Z,2.80
2023-04-18T15:20:50.850Z,2.72
2023-04-18T15:23:18.325Z,2.70
2023-04-18T15:25:49.092Z,2.80
2023-04-18T15:28:21.880Z,2.85
2023-04-18T15:30:48.962Z,2.72
2023-04-18T15:33:25.122Z,2.67
2023-04-18T15:35:51.920Z,2.60
2023-04-18T15:38:19.032Z,2.65
2023-04-18T15:40:48.136Z,2.95
2023-04-18T15:43:19.612Z,2.70
2023-04-18T15:45:46.962Z,2.97
2023-04-18T15:48:13.793Z,3.13
2023-04-18T15:50:45.532Z,2.88
2023-04-18T15:53:12.344Z,3.10
2023-04-18T15:55:39.159Z,2.95
2023-04-18T15:58:06.752Z,2.90
2023-04-18T16:00:35.610Z,2.58
2023-04-18T16:03:04.691Z,3.15
2023-04-18T16:05:31.855Z,2.83
2023-04-18T16:08:06.525Z,3.50
2023-04-18T16:10:35.542Z,3.00
2023-04-18T16:13:02.483Z,3.17
2023-04-18T16:15:31.881Z,4.53
2023-04-18T16:18:05.212Z,4.50
2023-04-18T16:20:35.485Z,4.18
2023-04-18T16:23:06.065Z,3.97
2023-04-18T16:25:32.736Z,3.08
2023-04-18T16:27:59.384Z,3.17
2023-04-18T16:30:26.217Z,2.95
2023-04-18T16:32:55.384Z,2.90
2023-04-18T16:35:22.431Z,2.78
2023-04-18T16:37:49.244Z,2.70
2023-04-18T16:40:21.659Z,2.72
2023-04-18T16:42:48.508Z,3.00
2023-04-18T16:45:20.241Z,2.80
2023-04-18T16:47:47.025Z,2.75
2023-04-18T16:50:13.930Z,2.60
2023-04-18T16:52:45.857Z,3.00
2023-04-18T16:55:12.839Z,2.75
2023-04-18T16:57:39.800Z,2.90
2023-04-18T17:00:12.649Z,2.83
2023-04-18T17:02:43.290Z,2.95
2023-04-18T17:05:13.229Z,2.50
2023-04-18T17:07:40.134Z,3.08
2023-04-18T17:10:09.522Z,2.90
2023-04-18T17:12:38.947Z,3.10
2023-04-18T17:15:09.292Z,2.90
2023-04-18T17:17:38.198Z,2.65
2023-04-18T17:20:11.467Z,2.90
2023-04-18T17:22:42.811Z,3.03
2023-04-18T17:25:10.065Z,2.95
2023-04-18T17:27:36.777Z,3.15
2023-04-18T17:30:03.753Z,3.05
2023-04-18T17:32:30.830Z,2.85
2023-04-18T17:35:04.751Z,3.30
2023-04-18T17:37:33.897Z,3.10
2023-04-18T17:40:09.488Z,2.90
2023-04-18T17:42:36.901Z,3.40
2023-04-18T17:45:08.115Z,3.20
2023-04-18T17:47:36.657Z,3.40
2023-04-18T17:50:05.155Z,3.25
2023-04-18T17:52:31.893Z,3.53
2023-04-18T17:55:00.331Z,3.45
2023-04-18T17:57:27.659Z,3.40
2023-04-18T17:59:54.555Z,3.10
2023-04-18T18:02:24.332Z,3.30
2023-04-18T18:04:51.585Z,3.45
2023-04-18T18:07:18.482Z,3.30
2023-04-18T18:09:45.603Z,3.60
2023-04-18T18:12:12.479Z,3.60
2023-04-18T18:14:40.677Z,3.40
2023-04-18T18:17:09.927Z,3.35
2023-04-18T18:19:39.777Z,3.70
2023-04-18T18:22:09.548Z,3.60
2023-04-18T18:24:47.773Z,3.60
2023-04-18T18:27:14.643Z,3.30
2023-04-18T18:29:41.479Z,3.40
2023-04-18T18:32:17.381Z,3.38
2023-04-18T18:34:44.486Z,3.30
2023-04-18T18:37:11.900Z,3.17
2023-04-18T18:39:39.214Z,3.17
2023-04-18T18:42:07.622Z,3.20
2023-04-18T18:44:39.578Z,3.30
2023-04-18T18:47:09.252Z,3.10
2023-04-18T18:49:40.927Z,3.15
2023-04-18T18:52:07.957Z,2.97
2023-04-18T18:54:34.982Z,3.25
2023-04-18T18:57:04.458Z,3.20
2023-04-18T18:59:35.117Z,3.28
2023-04-18T19:02:01.991Z,3.33
2023-04-18T19:04:29.010Z,3.30
2023-04-18T19:06:58.804Z,3.25
2023-04-18T19:09:28.566Z,3.40
2023-04-18T19:11:55.256Z,3.30
2023-04-18T19:14:24.748Z,3.63
2023-04-18T19:16:51.672Z,3.70
2023-04-18T19:19:18.713Z,3.75
2023-04-18T19:21:47.853Z,3.50
2023-04-18T19:24:14.777Z,3.40
2023-04-18T19:26:41.825Z,3.50
2023-04-18T19:29:14.825Z,3.30
2023-04-18T19:31:44.343Z,3.30
2023-04-18T19:34:14.054Z,3.17
2023-04-18T19:36:43.074Z,3.25
2023-04-18T19:39:10.134Z,3.28
2023-04-18T19:41:37.150Z,3.20
2023-04-18T19:44:07.127Z,3.80
2023-04-18T19:46:34.015Z,3.47
2023-04-18T19:49:03.550Z,2.95
2023-04-18T19:51:32.778Z,3.22
2023-04-18T19:54:02.671Z,4.75
2023-04-18T19:56:29.676Z,3.30
2023-04-18T19:58:57.883Z,2.95
2023-04-18T20:01:27.729Z,3.40
2023-04-18T20:04:00.264Z,3.08
2023-04-18T20:06:27.847Z,3.10
2023-04-18T20:08:55.067Z,3.10
2023-04-18T20:11:22.264Z,3.30
2023-04-18T20:13:52.294Z,2.95
2023-04-18T20:16:19.339Z,3.20
2023-04-18T20:18:50.031Z,2.90
2023-04-18T20:21:16.802Z,3.10
2023-04-18T20:23:46.092Z,3.05
2023-04-18T20:26:12.842Z,3.10
2023-04-18T20:28:39.571Z,2.97
2023-04-18T20:31:07.095Z,2.90
2023-04-18T20:33:34.316Z,3.00
2023-04-18T20:36:03.495Z,2.90
2023-04-18T20:38:33.269Z,2.90
2023-04-18T20:41:02.640Z,3.00
2023-04-18T20:43:29.649Z,2.67
2023-04-18T20:45:57.918Z,2.88
2023-04-18T20:48:24.843Z,3.20
2023-04-18T20:50:51.737Z,3.05
2023-04-18T20:53:27.081Z,2.90
2023-04-18T20:55:54.195Z,2.80
2023-04-18T20:58:23.092Z,2.83
2023-04-18T21:00:49.843Z,2.90
2023-04-18T21:03:17.050Z,3.00
2023-04-18T21:05:46.204Z,3.30
2023-04-18T21:08:13.016Z,2.90
2023-04-18T21:10:39.866Z,2.90
2023-04-18T21:13:11.575Z,2.90
2023-04-18T21:15:38.358Z,2.80
2023-04-18T21:18:07.431Z,2.88
2023-04-18T21:20:37.158Z,2.70
2023-04-18T21:23:04.069Z,2.60
2023-04-18T21:25:30.890Z,3.08
2023-04-18T21:27:57.641Z,2.70
2023-04-18T21:30:27.263Z,2.83
2023-04-18T21:32:56.497Z,2.92
2023-04-18T21:35:25.698Z,2.80
2023-04-18T21:37:52.522Z,2.97
2023-04-18T21:40:19.367Z,3.08
2023-04-18T21:42:47.780Z,3.00
2023-04-18T21:45:16.282Z,2.58
2023-04-18T21:47:45.996Z,2.78
2023-04-18T21:50:12.775Z,2.65
2023-04-18T21:52:42.227Z,2.85
2023-04-18T21:55:09.550Z,2.80
2023-04-18T21:57:38.525Z,2.93
2023-04-18T22:00:10.528Z,2.65
2023-04-18T22:02:42.597Z,2.75
2023-04-18T22:05:09.588Z,2.80
2023-04-18T22:07:46.703Z,2.70
2023-04-18T22:10:26.168Z,2.90
2023-04-18T22:12:55.992Z,2.60
2023-04-18T22:15:25.057Z,2.90
2023-04-18T22:17:52.049Z,3.08
2023-04-18T22:20:21.644Z,2.75
2023-04-18T22:22:48.386Z,2.83
2023-04-18T22:25:15.287Z,2.60
2023-04-18T22:27:50.468Z,2.85
2023-04-18T22:30:17.222Z,2.75
2023-04-18T22:32:46.399Z,3.00
2023-04-18T22:35:13.183Z,2.80
2023-04-18T22:37:44.817Z,2.63
2023-04-18T22:40:12.630Z,2.67
2023-04-18T22:42:39.532Z,2.80
2023-04-18T22:45:09.243Z,2.70
2023-04-18T22:47:38.535Z,2.85
2023-04-18T22:50:06.312Z,2.78
2023-04-18T22:52:33.026Z,2.65
2023-04-18T22:55:01.626Z,2.80
2023-04-18T22:57:31.518Z,2.70
2023-04-18T22:59:58.315Z,2.65
2023-04-18T23:02:30.660Z,2.60
2023-04-18T23:05:02.404Z,2.80
2023-04-18T23:07:34.317Z,2.72
2023-04-18T23:10:01.108Z,2.90
2023-04-18T23:12:30.641Z,2.70
2023-04-18T23:15:02.697Z,2.72
2023-04-18T23:17:29.606Z,3.05
2023-04-18T23:19:56.396Z,2.90
2023-04-18T23:22:26.025Z,2.83
2023-04-18T23:24:52.953Z,2.83
2023-04-18T23:27:22.174Z,2.95
2023-04-18T23:29:49.225Z,2.75
2023-04-18T23:32:19.264Z,2.90
2023-04-18T23:34:49.234Z,2.92
2023-04-18T23:37:16.010Z,2.72
2023-04-18T23:39:42.708Z,2.72
2023-04-18T23:42:09.637Z,2.95
2023-04-18T23:44:36.598Z,3.10
2023-04-18T23:47:06.191Z,2.80
2023-04-18T23:49:34.422Z,2.88
2023-04-18T23:52:01.209Z,2.97
2023-04-18T23:54:27.983Z,3.00
2023-04-18T23:56:59.480Z,2.78
2023-04-18T23:59:31.506Z,2.95
